createdAt,value
2018-12-29T00:01:01.258Z,102602.15
2018-12-29T00:03:31.588Z,102603.41
2018-12-29T00:06:01.968Z,102597.68
2018-12-29T00:08:32.557Z,102606.35
2018-12-29T00:11:02.927Z,102606.38
2018-12-29T00:13:33.375Z,102610.92
2018-12-29T00:16:03.709Z,102600.63
2018-12-29T00:18:34.056Z,102609.98
2018-12-29T00:21:04.653Z,102603.64
2018-12-29T00:23:35.349Z,102606.12
2018-12-29T00:26:05.899Z,102596.13
2018-12-29T00:28:36.867Z,102602.66
2018-12-29T00:31:07.311Z,102603.84
2018-12-29T00:33:37.674Z,102601.75
2018-12-29T00:36:07.986Z,102606.89
2018-12-29T00:38:38.306Z,102609.00
2018-12-29T00:41:08.785Z,102616.41
2018-12-29T00:43:38.998Z,102616.41
2018-12-29T00:46:09.430Z,102620.27
2018-12-29T00:48:40.347Z,102612.14
2018-12-29T00:51:10.670Z,102616.92
2018-12-29T00:53:41.015Z,102621.36
2018-12-29T00:56:11.247Z,102622.70
2018-12-29T00:58:41.878Z,102623.48
2018-12-29T01:01:12.743Z,102627.25
2018-12-29T01:03:43.230Z,102623.86
2018-12-29T01:06:13.741Z,102622.98
2018-12-29T01:08:44.447Z,102623.80
2018-12-29T01:11:14.745Z,102621.56
2018-12-29T01:13:45.058Z,102622.50
2018-12-29T01:16:15.846Z,102624.67
2018-12-29T01:18:46.708Z,102610.99
2018-12-29T01:21:17.273Z,102611.91
2018-12-29T01:23:48.299Z,102603.77
2018-12-29T01:26:18.716Z,102602.48
2018-12-29T01:28:49.504Z,102607.16
2018-12-29T01:31:19.908Z,102614.52
2018-12-29T01:33:50.143Z,102611.53
2018-12-29T01:36:20.427Z,102612.04
2018-12-29T01:38:50.726Z,102612.55
2018-12-29T01:41:21.108Z,102609.59
2018-12-29T01:43:51.541Z,102605.20
2018-12-29T01:46:22.071Z,102615.56
2018-12-29T01:48:52.815Z,102606.48
2018-12-29T01:51:23.523Z,102609.47
2018-12-29T01:53:53.868Z,102615.94
2018-12-29T01:56:24.483Z,102617.32
2018-12-29T01:58:54.856Z,102619.95
2018-12-29T02:01:25.614Z,102610.51
2018-12-29T02:03:55.929Z,102606.68
2018-12-29T02:06:26.422Z,102610.27
2018-12-29T02:08:57.166Z,102615.92
2018-12-29T02:11:27.542Z,102618.36
2018-12-29T02:13:57.837Z,102620.53
2018-12-29T02:16:28.173Z,102614.22
2018-12-29T02:18:58.585Z,102626.59
2018-12-29T02:21:28.981Z,102621.07
2018-12-29T02:23:59.874Z,102618.46
2018-12-29T02:26:30.478Z,102613.63
2018-12-29T02:29:01.452Z,102616.08
2018-12-29T02:31:31.709Z,102622.48
2018-12-29T02:34:02.132Z,102619.87
2018-12-29T02:36:32.541Z,102619.31
2018-12-29T02:39:03.251Z,102625.47
2018-12-29T02:41:33.726Z,102618.46
2018-12-29T02:44:03.956Z,102623.64
2018-12-29T02:46:34.362Z,102622.83
2018-12-29T02:49:04.667Z,102620.25
2018-12-29T02:51:34.960Z,102627.16
2018-12-29T02:54:05.656Z,102631.97
2018-12-29T02:56:36.043Z,102626.00
2018-12-29T02:59:06.726Z,102638.44
2018-12-29T03:01:37.104Z,102638.44
2018-12-29T03:04:07.499Z,102626.35
2018-12-29T03:06:37.953Z,102624.52
2018-12-29T03:09:08.411Z,102634.61
2018-12-29T03:11:38.987Z,102642.30
2018-12-29T03:14:09.340Z,102640.11
2018-12-29T03:16:40.035Z,102633.27
2018-12-29T03:19:10.697Z,102633.73
2018-12-29T03:21:41.046Z,102626.11
2018-12-29T03:24:11.588Z,102620.86
2018-12-29T03:26:42.218Z,102622.52
2018-12-29T03:29:13.202Z,102622.99
2018-12-29T03:31:43.860Z,102620.01
2018-12-29T03:34:14.565Z,102617.37
2018-12-29T03:36:45.310Z,102617.71
2018-12-29T03:39:15.682Z,102618.53
2018-12-29T03:41:46.127Z,102615.45
2018-12-29T03:44:16.888Z,102623.30
2018-12-29T03:46:47.658Z,102622.89
2018-12-29T03:49:18.079Z,102622.89
2018-12-29T03:51:48.755Z,102625.97
2018-12-29T03:54:19.241Z,102616.15
2018-12-29T03:56:49.615Z,102605.87
2018-12-29T03:59:20.002Z,102599.03
2018-12-29T04:01:50.327Z,102599.41
2018-12-29T04:04:20.839Z,102602.42
2018-12-29T04:06:51.452Z,102595.95
2018-12-29T04:09:38.283Z,102606.69
2018-12-29T04:12:24.210Z,102599.84
2018-12-29T04:14:54.603Z,102594.16
2018-12-29T04:17:24.999Z,102590.80
2018-12-29T04:19:56.222Z,102591.45
2018-12-29T04:22:27.002Z,102581.97
2018-12-29T04:24:57.563Z,102580.75
2018-12-29T04:27:27.957Z,102574.34
2018-12-29T04:29:58.303Z,102577.27
2018-12-29T04:32:29.032Z,102579.34
2018-12-29T04:34:59.339Z,102574.97
2018-12-29T04:37:29.786Z,102570.23
2018-12-29T04:40:00.245Z,102571.11
2018-12-29T04:42:30.862Z,102566.88
2018-12-29T04:45:01.518Z,102561.69
2018-12-29T04:47:31.908Z,102562.60
2018-12-29T04:50:02.641Z,102568.94
2018-12-29T04:52:33.258Z,102569.03
2018-12-29T04:55:03.824Z,102562.98
2018-12-29T04:57:34.216Z,102565.99
2018-12-29T05:00:05.103Z,102564.70
2018-12-29T05:02:35.356Z,102567.28
2018-12-29T05:05:06.113Z,102563.54
2018-12-29T05:07:38.094Z,102561.09
2018-12-29T05:10:08.870Z,102559.27
2018-12-29T05:12:39.126Z,102556.29
2018-12-29T05:15:09.482Z,102555.03
2018-12-29T05:17:40.060Z,102561.19
2018-12-29T05:20:10.501Z,102555.94
2018-12-29T05:22:41.063Z,102559.27
2018-12-29T05:25:11.605Z,102565.33
2018-12-29T05:27:42.006Z,102564.52
2018-12-29T05:30:12.701Z,102562.85
2018-12-29T05:32:43.018Z,102562.48
2018-12-29T05:35:15.229Z,102559.05
2018-12-29T05:37:45.703Z,102567.34
2018-12-29T05:40:17.269Z,102569.41
2018-12-29T05:42:47.545Z,102578.84
2018-12-29T05:45:17.854Z,102578.05
2018-12-29T05:47:48.209Z,102586.66
2018-12-29T05:50:18.518Z,102591.43
2018-12-29T05:52:48.870Z,102596.95
2018-12-29T05:55:19.247Z,102604.31
2018-12-29T05:57:49.555Z,102604.38
2018-12-29T06:00:20.251Z,102605.19
2018-12-29T06:02:50.870Z,102606.25
2018-12-29T06:05:21.188Z,102609.21
2018-12-29T06:07:51.754Z,102612.19
2018-12-29T06:10:22.141Z,102611.28
2018-12-29T06:12:52.414Z,102610.81
2018-12-29T06:15:23.048Z,102612.19
2018-12-29T06:17:53.424Z,102622.63
2018-12-29T06:20:24.065Z,102621.02
2018-12-29T06:22:54.459Z,102626.20
2018-12-29T06:25:24.854Z,102621.55
2018-12-29T06:27:55.259Z,102627.90
2018-12-29T06:30:25.641Z,102621.96
2018-12-29T06:32:56.258Z,102621.84
2018-12-29T06:35:26.889Z,102618.85
2018-12-29T06:37:57.238Z,102623.59
2018-12-29T06:40:27.618Z,102618.47
2018-12-29T06:42:58.001Z,102628.88
2018-12-29T06:45:28.641Z,102619.89
2018-12-29T06:47:59.004Z,102620.67
2018-12-29T06:50:29.385Z,102615.14
2018-12-29T06:53:00.083Z,102619.01
2018-12-29T06:55:30.366Z,102617.72
2018-12-29T06:58:00.930Z,102624.75
2018-12-29T07:00:31.775Z,102618.75
2018-12-29T07:03:02.441Z,102620.39
2018-12-29T07:05:33.197Z,102628.22
2018-12-29T07:08:04.261Z,102621.42
2018-12-29T07:10:34.722Z,102625.32
2018-12-29T07:13:05.121Z,102632.64
2018-12-29T07:15:36.180Z,102629.75
2018-12-29T07:18:06.780Z,102638.77
2018-12-29T07:20:37.258Z,102633.61
2018-12-29T07:23:07.811Z,102635.43
2018-12-29T07:25:38.172Z,102631.59
2018-12-29T07:28:08.872Z,102635.46
2018-12-29T07:30:39.266Z,102632.91
2018-12-29T07:33:09.719Z,102635.84
2018-12-29T07:35:40.199Z,102642.03
2018-12-29T07:38:10.856Z,102639.42
2018-12-29T07:40:41.137Z,102628.26
2018-12-29T07:43:11.595Z,102633.89
2018-12-29T07:45:42.001Z,102635.58
2018-12-29T07:48:13.427Z,102636.58
2018-12-29T07:50:44.088Z,102639.54
2018-12-29T07:53:14.404Z,102637.38
2018-12-29T07:55:44.765Z,102637.78
2018-12-29T07:58:15.426Z,102634.50
2018-12-29T08:00:46.163Z,102635.88
2018-12-29T08:03:16.756Z,102641.16
2018-12-29T08:05:47.222Z,102637.23
2018-12-29T08:08:17.691Z,102633.42
2018-12-29T08:10:47.996Z,102642.47
2018-12-29T08:13:18.293Z,102638.14
2018-12-29T08:15:48.874Z,102636.58
2018-12-29T08:18:19.477Z,102632.72
2018-12-29T08:20:49.843Z,102633.16
2018-12-29T08:23:20.201Z,102632.80
2018-12-29T08:25:50.492Z,102627.36
2018-12-29T08:28:20.794Z,102632.48
2018-12-29T08:30:51.178Z,102629.58
2018-12-29T08:33:21.607Z,102625.69
2018-12-29T08:35:52.318Z,102625.38
2018-12-29T08:38:22.733Z,102634.80
2018-12-29T08:40:53.137Z,102625.33
2018-12-29T08:43:23.617Z,102620.25
2018-12-29T08:45:54.247Z,102622.39
2018-12-29T08:48:24.703Z,102619.46
2018-12-29T08:50:55.249Z,102616.41
2018-12-29T08:53:25.630Z,102611.31
2018-12-29T08:55:56.270Z,102616.00
2018-12-29T08:58:26.674Z,102618.78
2018-12-29T09:00:57.432Z,102616.58
2018-12-29T09:03:28.307Z,102620.36
2018-12-29T09:05:59.040Z,102613.20
2018-12-29T09:08:29.579Z,102617.52
2018-12-29T09:11:00.392Z,102614.91
2018-12-29T09:13:30.946Z,102607.69
2018-12-29T09:16:01.658Z,102608.48
2018-12-29T09:18:32.158Z,102611.56
2018-12-29T09:21:02.680Z,102602.83
2018-12-29T09:23:35.523Z,102603.38
2018-12-29T09:26:06.140Z,102608.98
2018-12-29T09:28:36.514Z,102609.09
2018-12-29T09:31:07.068Z,102612.93
2018-12-29T09:33:37.352Z,102606.59
2018-12-29T09:36:07.870Z,102604.50
2018-12-29T09:38:38.177Z,102609.19
2018-12-29T09:41:08.817Z,102606.78
2018-12-29T09:43:39.262Z,102603.27
2018-12-29T09:46:09.623Z,102598.67
2018-12-29T09:48:40.337Z,102594.23
2018-12-29T09:51:10.950Z,102583.50
2018-12-29T09:53:41.397Z,102588.44
2018-12-29T09:56:12.053Z,102577.16
2018-12-29T09:58:42.275Z,102564.77
2018-12-29T10:01:12.731Z,102557.95
2018-12-29T10:03:43.180Z,102560.67
2018-12-29T10:06:13.866Z,102551.30
2018-12-29T10:08:44.385Z,102550.16
2018-12-29T10:11:14.986Z,102532.67
2018-12-29T10:13:45.399Z,102530.11
2018-12-29T10:16:15.985Z,102525.94
2018-12-29T10:18:46.215Z,102524.30
2018-12-29T10:21:16.615Z,102515.69
2018-12-29T10:23:47.173Z,102513.59
2018-12-29T10:26:17.773Z,102505.05
2018-12-29T10:28:48.985Z,102502.56
2018-12-29T10:31:19.450Z,102491.41
2018-12-29T10:33:49.818Z,102501.34
2018-12-29T10:36:20.239Z,102492.42
2018-12-29T10:38:52.265Z,102489.83
2018-12-29T10:41:22.618Z,102486.05
2018-12-29T10:43:52.983Z,102495.17
2018-12-29T10:46:23.351Z,102493.40
2018-12-29T10:48:53.719Z,102484.89
2018-12-29T10:51:24.356Z,102495.34
2018-12-29T10:53:54.746Z,102497.17
2018-12-29T10:56:25.101Z,102492.91
2018-12-29T10:58:55.364Z,102486.98
2018-12-29T11:01:25.665Z,102490.46
2018-12-29T11:03:56.283Z,102492.33
2018-12-29T11:06:26.756Z,102490.36
2018-12-29T11:08:57.046Z,102494.72
2018-12-29T11:11:27.515Z,102486.17
2018-12-29T11:13:57.957Z,102462.56
2018-12-29T11:16:31.648Z,102448.41
2018-12-29T11:19:02.009Z,102437.27
2018-12-29T11:21:32.680Z,102428.73
2018-12-29T11:24:03.242Z,102422.28
2018-12-29T11:26:33.506Z,102414.18
2018-12-29T11:29:04.843Z,102412.12
2018-12-29T11:31:35.155Z,102423.82
2018-12-29T11:34:05.776Z,102424.66
2018-12-29T11:36:36.196Z,102435.45
2018-12-29T11:39:07.956Z,102438.47
2018-12-29T11:41:38.308Z,102436.40
2018-12-29T11:44:08.732Z,102417.35
2018-12-29T11:46:39.214Z,102433.70
2018-12-29T11:49:17.839Z,102436.27
2018-12-29T11:51:43.039Z,102421.18
2018-12-29T11:54:13.988Z,102401.78
2018-12-29T11:56:44.266Z,102413.05
2018-12-29T11:59:14.645Z,102407.06
2018-12-29T12:01:45.529Z,102407.08
2018-12-29T12:04:15.879Z,102394.20
2018-12-29T12:06:46.208Z,102383.89
2018-12-29T12:09:17.102Z,102370.55
2018-12-29T12:11:47.529Z,102378.78
2018-12-29T12:14:17.759Z,102368.48
2018-12-29T12:16:48.185Z,102369.88
2018-12-29T12:19:18.627Z,102394.94
2018-12-29T12:21:49.271Z,102390.64
2018-12-29T12:24:20.243Z,102383.80
2018-12-29T12:26:50.651Z,102390.74
2018-12-29T12:29:21.310Z,102378.22
2018-12-29T12:31:51.728Z,102364.39
2018-12-29T12:34:22.228Z,102363.61
2018-12-29T12:36:52.774Z,102362.31
2018-12-29T12:39:23.055Z,102356.25
2018-12-29T12:41:53.412Z,102358.94
2018-12-29T12:44:23.721Z,102354.09
2018-12-29T12:46:53.940Z,102352.00
2018-12-29T12:49:26.008Z,102322.23
2018-12-29T12:51:56.487Z,102330.50
2018-12-29T12:54:26.844Z,102336.09
2018-12-29T12:56:57.128Z,102327.03
2018-12-29T12:59:27.815Z,102324.41
2018-12-29T13:01:58.122Z,102330.88
2018-12-29T13:04:28.778Z,102335.16
2018-12-29T13:06:59.467Z,102330.41
2018-12-29T13:09:29.848Z,102325.19
2018-12-29T13:12:00.372Z,102331.70
2018-12-29T13:14:30.778Z,102344.19
2018-12-29T13:17:01.294Z,102329.98
2018-12-29T13:19:31.479Z,102318.76
2018-12-29T13:22:01.803Z,102313.58
2018-12-29T13:24:32.136Z,102300.17
2018-12-29T13:27:03.008Z,102283.77
2018-12-29T13:29:33.839Z,102297.97
2018-12-29T13:32:04.323Z,102324.77
2018-12-29T13:34:34.733Z,102316.12
2018-12-29T13:37:05.197Z,102332.08
2018-12-29T13:39:36.188Z,102330.31
2018-12-29T13:42:06.833Z,102319.55
2018-12-29T13:44:37.213Z,102316.91
2018-12-29T13:47:07.660Z,102318.21
2018-12-29T13:49:37.950Z,102319.88
2018-12-29T13:52:08.353Z,102296.98
2018-12-29T13:54:38.571Z,102292.65
2018-12-29T13:57:08.844Z,102266.72
2018-12-29T13:59:39.131Z,102263.30
2018-12-29T14:02:09.556Z,102263.67
2018-12-29T14:04:39.774Z,102257.63
2018-12-29T14:07:10.099Z,102228.69
2018-12-29T14:09:40.548Z,102215.34
2018-12-29T14:12:11.636Z,102224.34
2018-12-29T14:14:42.082Z,102198.89
2018-12-29T14:17:12.430Z,102188.66
2018-12-29T14:19:44.664Z,102192.87
2018-12-29T14:22:15.141Z,102190.71
2018-12-29T14:24:45.818Z,102208.83
2018-12-29T14:27:16.189Z,102209.66
2018-12-29T14:29:46.668Z,102216.16
2018-12-29T14:32:17.419Z,102229.06
2018-12-29T14:34:48.601Z,102221.34
2018-12-29T14:37:19.103Z,102219.59
2018-12-29T14:39:49.373Z,102205.36
2018-12-29T14:42:19.706Z,102194.97
2018-12-29T14:44:50.378Z,102194.09
2018-12-29T14:47:20.902Z,102189.79
2018-12-29T14:49:51.298Z,102186.33
2018-12-29T14:52:21.688Z,102184.58
2018-12-29T14:54:52.287Z,102192.37
2018-12-29T14:57:22.644Z,102196.72
2018-12-29T14:59:53.296Z,102186.75
2018-12-29T15:02:23.992Z,102175.98
2018-12-29T15:04:54.694Z,102166.47
2018-12-29T15:07:25.054Z,102161.30
2018-12-29T15:09:55.655Z,102166.88
2018-12-29T15:12:26.384Z,102146.19
2018-12-29T15:14:57.229Z,102152.69
2018-12-29T15:17:27.450Z,102154.91
2018-12-29T15:19:58.274Z,102124.27
2018-12-29T15:22:28.849Z,102137.21
2018-12-29T15:24:59.299Z,102129.03
2018-12-29T15:27:29.568Z,102120.84
2018-12-29T15:29:59.941Z,102137.63
2018-12-29T15:32:30.199Z,102142.34
2018-12-29T15:35:01.042Z,102131.16
2018-12-29T15:37:31.395Z,102163.00
2018-12-29T15:40:02.606Z,102178.06
2018-12-29T15:42:33.051Z,102184.07
2018-12-29T15:45:03.434Z,102181.94
2018-12-29T15:47:33.711Z,102194.28
2018-12-29T15:50:04.469Z,102201.11
2018-12-29T15:52:35.088Z,102204.11
2018-12-29T15:55:05.675Z,102205.72
2018-12-29T15:57:36.012Z,102212.17
2018-12-29T16:00:06.746Z,102198.73
2018-12-29T16:02:37.124Z,102209.02
2018-12-29T16:05:07.819Z,102192.58
2018-12-29T16:07:38.477Z,102180.53
2018-12-29T16:10:08.953Z,102188.65
2018-12-29T16:12:39.490Z,102198.14
2018-12-29T16:15:10.203Z,102182.17
2018-12-29T16:17:40.555Z,102187.77
2018-12-29T16:20:10.992Z,102186.01
2018-12-29T16:22:41.290Z,102175.67
2018-12-29T16:25:11.634Z,102185.55
2018-12-29T16:27:41.934Z,102180.83
2018-12-29T16:30:12.291Z,102176.08
2018-12-29T16:32:42.947Z,102167.86
2018-12-29T16:35:13.304Z,102162.73
2018-12-29T16:37:43.735Z,102168.33
2018-12-29T16:40:14.076Z,102167.09
2018-12-29T16:42:44.414Z,102155.00
2018-12-29T16:45:14.942Z,102161.50
2018-12-29T16:47:45.619Z,102158.09
2018-12-29T16:50:16.054Z,102163.27
2018-12-29T16:52:46.297Z,102150.34
2018-12-29T16:55:17.286Z,102137.47
2018-12-29T16:57:47.778Z,102129.30
2018-12-29T17:00:18.147Z,102133.59
2018-12-29T17:02:48.835Z,102115.96
2018-12-29T17:05:19.178Z,102118.18
2018-12-29T17:07:50.118Z,102119.47
2018-12-29T17:10:20.910Z,102111.72
2018-12-29T17:12:51.561Z,102110.42
2018-12-29T17:15:22.156Z,102115.59
2018-12-29T17:17:52.730Z,102103.09
2018-12-29T17:20:23.096Z,102109.13
2018-12-29T17:22:53.450Z,102104.42
2018-12-29T17:25:24.492Z,102098.37
2018-12-29T17:27:55.132Z,102105.72
2018-12-29T17:30:25.427Z,102106.59
2018-12-29T17:32:56.036Z,102101.88
2018-12-29T17:35:27.017Z,102102.34
2018-12-29T17:37:57.604Z,102102.34
2018-12-29T17:40:28.127Z,102097.63
2018-12-29T17:42:58.752Z,102095.88
2018-12-29T17:45:29.112Z,102092.45
2018-12-29T17:48:00.429Z,102098.52
2018-12-29T17:50:31.275Z,102093.75
2018-12-29T17:53:01.560Z,102095.92
2018-12-29T17:55:31.952Z,102094.20
2018-12-29T17:58:03.188Z,102104.59
2018-12-29T18:00:34.024Z,102096.42
2018-12-29T18:03:04.401Z,102089.95
2018-12-29T18:05:35.042Z,102087.37
2018-12-29T18:08:05.430Z,102082.23
2018-12-29T18:10:35.742Z,102068.47
2018-12-29T18:13:06.429Z,102088.75
2018-12-29T18:15:37.366Z,102075.81
2018-12-29T18:18:07.974Z,102078.40
2018-12-29T18:20:38.537Z,102084.06
2018-12-29T18:23:09.777Z,102080.19
2018-12-29T18:25:40.102Z,102074.63
2018-12-29T18:28:10.557Z,102078.51
2018-12-29T18:30:40.862Z,102063.44
2018-12-29T18:33:11.341Z,102064.31
2018-12-29T18:35:41.961Z,102066.52
2018-12-29T18:38:12.358Z,102064.83
2018-12-29T18:40:42.701Z,102079.48
2018-12-29T18:43:13.012Z,102084.66
2018-12-29T18:45:43.232Z,102093.30
2018-12-29T18:48:13.912Z,102094.63
2018-12-29T18:50:44.208Z,102090.74
2018-12-29T18:53:14.806Z,102097.70
2018-12-29T18:55:45.628Z,102100.70
2018-12-29T18:58:16.021Z,102095.11
2018-12-29T19:00:46.530Z,102094.69
2018-12-29T19:03:17.218Z,102094.30
2018-12-29T19:05:47.842Z,102095.20
2018-12-29T19:08:18.166Z,102084.88
2018-12-29T19:10:48.588Z,102095.70
2018-12-29T19:13:19.178Z,102083.19
2018-12-29T19:15:49.827Z,102078.45
2018-12-29T19:18:20.278Z,102084.98
2018-12-29T19:20:51.621Z,102090.61
2018-12-29T19:23:22.254Z,102096.18
2018-12-29T19:25:52.994Z,102082.81
2018-12-29T19:28:23.861Z,102087.14
2018-12-29T19:30:54.481Z,102089.76
2018-12-29T19:33:25.158Z,102088.91
2018-12-29T19:35:55.732Z,102095.84
2018-12-29T19:38:26.326Z,102090.67
2018-12-29T19:40:56.621Z,102093.69
2018-12-29T19:43:27.218Z,102092.84
2018-12-29T19:45:57.584Z,102090.33
2018-12-29T19:48:27.867Z,102086.44
2018-12-29T19:50:58.558Z,102084.28
2018-12-29T19:53:29.214Z,102091.63
2018-12-29T19:55:59.663Z,102082.58
2018-12-29T19:58:30.578Z,102077.42
2018-12-29T20:01:01.282Z,102075.72
2018-12-29T20:03:31.916Z,102078.31
2018-12-29T20:06:02.542Z,102076.19
2018-12-29T20:08:33.136Z,102071.83
2018-12-29T20:11:03.591Z,102062.77
2018-12-29T20:13:33.815Z,102063.63
2018-12-29T20:16:04.582Z,102067.13
2018-12-29T20:18:35.250Z,102058.89
2018-12-29T20:21:06.113Z,102050.67
2018-12-29T20:23:36.409Z,102058.93
2018-12-29T20:26:06.732Z,102066.25
2018-12-29T20:28:37.100Z,102061.08
2018-12-29T20:31:07.432Z,102066.27
2018-12-29T20:33:37.741Z,102074.50
2018-12-29T20:36:08.358Z,102064.58
2018-12-29T20:38:38.649Z,102060.67
2018-12-29T20:41:09.009Z,102077.53
2018-12-29T20:43:39.789Z,102079.72
2018-12-29T20:46:10.093Z,102087.08
2018-12-29T20:48:40.447Z,102087.52
2018-12-29T20:51:11.019Z,102101.34
2018-12-29T20:53:41.255Z,102092.28
2018-12-29T20:56:11.615Z,102096.17
2018-12-29T20:58:41.904Z,102095.73
2018-12-29T21:01:12.125Z,102091.40
2018-12-29T21:03:42.385Z,102089.69
2018-12-29T21:06:12.811Z,102098.77
2018-12-29T21:08:43.103Z,102091.42
2018-12-29T21:11:13.385Z,102096.62
2018-12-29T21:13:43.824Z,102104.39
2018-12-29T21:16:14.321Z,102103.52
2018-12-29T21:18:44.795Z,102100.07
2018-12-29T21:21:15.214Z,102100.48
2018-12-29T21:23:45.441Z,102107.41
2018-12-29T21:26:15.767Z,102101.79
2018-12-29T21:28:46.107Z,102112.61
2018-12-29T21:31:16.549Z,102107.86
2018-12-29T21:33:46.931Z,102108.27
2018-12-29T21:36:17.393Z,102107.86
2018-12-29T21:38:47.795Z,102110.01
2018-12-29T21:41:18.175Z,102117.34
2018-12-29T21:43:49.197Z,102114.33
2018-12-29T21:46:19.751Z,102123.39
2018-12-29T21:48:50.188Z,102125.56
2018-12-29T21:51:20.534Z,102123.79
2018-12-29T21:53:50.979Z,102131.56
2018-12-29T21:56:21.877Z,102121.63
2018-12-29T21:58:52.577Z,102131.13
2018-12-29T22:01:23.044Z,102125.95
2018-12-29T22:03:53.280Z,102127.66
2018-12-29T22:06:23.726Z,102131.16
2018-12-29T22:08:54.446Z,102136.77
2018-12-29T22:11:25.061Z,102138.48
2018-12-29T22:13:55.420Z,102151.02
2018-12-29T22:16:25.728Z,102151.45
2018-12-29T22:18:56.326Z,102147.55
2018-12-29T22:21:26.919Z,102156.20
2018-12-29T22:23:57.455Z,102154.88
2018-12-29T22:26:27.790Z,102160.06
2018-12-29T22:28:58.633Z,102158.38
2018-12-29T22:31:29.015Z,102166.99
2018-12-29T22:36:25.230Z,102166.14
2018-12-29T22:38:57.514Z,102176.51
2018-12-29T22:41:28.398Z,102184.70
2018-12-29T22:43:59.010Z,102198.97
2018-12-29T22:46:29.642Z,102206.37
2018-12-29T22:49:00.276Z,102221.02
2018-12-29T22:51:30.824Z,102214.98
2018-12-29T22:54:01.455Z,102214.13
2018-12-29T22:56:32.189Z,102207.59
2018-12-29T22:59:02.554Z,102209.34
2018-12-29T23:01:33.145Z,102203.70
2018-12-29T23:04:03.590Z,102210.64
2018-12-29T23:06:34.184Z,102216.23
2018-12-29T23:09:07.361Z,102209.31
2018-12-29T23:11:37.783Z,102208.02
2018-12-29T23:14:08.328Z,102198.91
2018-12-29T23:16:38.644Z,102202.83
2018-12-29T23:19:09.358Z,102207.14
2018-12-29T23:21:39.696Z,102204.94
2018-12-29T23:24:10.322Z,102213.14
2018-12-29T23:26:40.683Z,102207.98
2018-12-29T23:29:11.332Z,102217.03
2018-12-29T23:31:41.774Z,102223.52
2018-12-29T23:34:12.133Z,102223.97
2018-12-29T23:36:42.714Z,102219.18
2018-12-29T23:39:13.026Z,102218.75
2018-12-29T23:41:43.674Z,102215.30
2018-12-29T23:44:14.293Z,102215.72
2018-12-29T23:46:44.865Z,102222.62
2018-12-29T23:49:15.272Z,102227.80
2018-12-29T23:51:45.965Z,102236.45
2018-12-29T23:54:16.326Z,102238.59
2018-12-29T23:56:47.230Z,102237.30
2018-12-29T23:59:17.892Z,102248.09
